sensor_id;sensor_type;location;lat;lon;timestamp;temperature;humidity
36450;DHT22;22475;51.390;7.180;2022-09-12T00:01:10;17.30;98.60
36450;DHT22;22475;51.390;7.180;2022-09-12T00:03:37;17.30;99.10
36450;DHT22;22475;51.390;7.180;2022-09-12T00:06:10;17.40;99.30
36450;DHT22;22475;51.390;7.180;2022-09-12T00:08:37;17.40;99.10
36450;DHT22;22475;51.390;7.180;2022-09-12T00:11:08;17.40;98.70
36450;DHT22;22475;51.390;7.180;2022-09-12T00:13:35;17.30;98.60
36450;DHT22;22475;51.390;7.180;2022-09-12T00:16:02;17.30;98.80
36450;DHT22;22475;51.390;7.180;2022-09-12T00:18:31;17.30;99.00
36450;DHT22;22475;51.390;7.180;2022-09-12T00:21:01;17.30;98.80
36450;DHT22;22475;51.390;7.180;2022-09-12T00:23:29;17.30;98.60
36450;DHT22;22475;51.390;7.180;2022-09-12T00:25:56;17.20;98.40
36450;DHT22;22475;51.390;7.180;2022-09-12T00:28:24;17.20;98.60
36450;DHT22;22475;51.390;7.180;2022-09-12T00:30:52;17.10;98.40
36450;DHT22;22475;51.390;7.180;2022-09-12T00:33:19;17.10;98.30
36450;DHT22;22475;51.390;7.180;2022-09-12T00:35:47;17.00;98.20
36450;DHT22;22475;51.390;7.180;2022-09-12T00:38:15;17.00;98.90
36450;DHT22;22475;51.390;7.180;2022-09-12T00:40:43;17.00;98.60
36450;DHT22;22475;51.390;7.180;2022-09-12T00:43:13;17.00;98.60
36450;DHT22;22475;51.390;7.180;2022-09-12T00:45:41;17.10;98.80
36450;DHT22;22475;51.390;7.180;2022-09-12T00:48:21;17.10;98.50
36450;DHT22;22475;51.390;7.180;2022-09-12T00:50:49;17.10;98.10
36450;DHT22;22475;51.390;7.180;2022-09-12T00:53:16;17.00;98.10
36450;DHT22;22475;51.390;7.180;2022-09-12T00:55:46;17.00;97.90
36450;DHT22;22475;51.390;7.180;2022-09-12T00:58:18;16.90;97.80
36450;DHT22;22475;51.390;7.180;2022-09-12T01:00:47;16.90;97.80
36450;DHT22;22475;51.390;7.180;2022-09-12T01:03:17;16.80;97.80
36450;DHT22;22475;51.390;7.180;2022-09-12T01:05:52;16.80;97.70
36450;DHT22;22475;51.390;7.180;2022-09-12T01:08:22;16.70;97.90
36450;DHT22;22475;51.390;7.180;2022-09-12T01:10:49;16.70;97.80
36450;DHT22;22475;51.390;7.180;2022-09-12T01:13:16;16.80;97.90
36450;DHT22;22475;51.390;7.180;2022-09-12T01:15:43;16.80;97.60
36450;DHT22;22475;51.390;7.180;2022-09-12T01:18:20;16.70;97.40
36450;DHT22;22475;51.390;7.180;2022-09-12T01:33:08;16.50;97.30
36450;DHT22;22475;51.390;7.180;2022-09-12T01:35:42;16.50;97.20
36450;DHT22;22475;51.390;7.180;2022-09-12T01:38:26;16.40;97.20
36450;DHT22;22475;51.390;7.180;2022-09-12T01:41:00;16.40;97.20
36450;DHT22;22475;51.390;7.180;2022-09-12T01:43:35;16.40;97.20
36450;DHT22;22475;51.390;7.180;2022-09-12T01:46:10;16.30;97.00
36450;DHT22;22475;51.390;7.180;2022-09-12T01:48:44;16.30;97.00
36450;DHT22;22475;51.390;7.180;2022-09-12T01:51:17;16.30;97.00
36450;DHT22;22475;51.390;7.180;2022-09-12T01:53:50;16.20;96.90
36450;DHT22;22475;51.390;7.180;2022-09-12T01:56:18;16.20;97.00
36450;DHT22;22475;51.390;7.180;2022-09-12T01:58:49;16.10;96.90
36450;DHT22;22475;51.390;7.180;2022-09-12T02:01:21;16.10;96.90
36450;DHT22;22475;51.390;7.180;2022-09-12T02:03:53;16.10;97.20
36450;DHT22;22475;51.390;7.180;2022-09-12T02:06:26;16.10;97.30
36450;DHT22;22475;51.390;7.180;2022-09-12T02:08:57;16.10;97.30
36450;DHT22;22475;51.390;7.180;2022-09-12T02:11:28;16.10;97.10
36450;DHT22;22475;51.390;7.180;2022-09-12T02:14:00;16.10;97.10
36450;DHT22;22475;51.390;7.180;2022-09-12T02:16:32;16.00;97.30
36450;DHT22;22475;51.390;7.180;2022-09-12T02:19:06;16.00;97.20
36450;DHT22;22475;51.390;7.180;2022-09-12T02:21:37;16.00;97.00
36450;DHT22;22475;51.390;7.180;2022-09-12T02:24:08;16.00;97.10
36450;DHT22;22475;51.390;7.180;2022-09-12T02:26:42;16.00;97.00
36450;DHT22;22475;51.390;7.180;2022-09-12T02:29:09;15.90;96.90
36450;DHT22;22475;51.390;7.180;2022-09-12T02:31:41;15.90;96.90
36450;DHT22;22475;51.390;7.180;2022-09-12T02:34:20;15.90;96.80
36450;DHT22;22475;51.390;7.180;2022-09-12T02:36:53;15.90;96.80
36450;DHT22;22475;51.390;7.180;2022-09-12T02:39:21;15.90;96.80
36450;DHT22;22475;51.390;7.180;2022-09-12T02:41:50;15.90;96.80
36450;DHT22;22475;51.390;7.180;2022-09-12T02:44:18;15.90;96.70
36450;DHT22;22475;51.390;7.180;2022-09-12T02:46:48;15.90;96.50
36450;DHT22;22475;51.390;7.180;2022-09-12T02:49:17;15.90;96.40
36450;DHT22;22475;51.390;7.180;2022-09-12T02:51:45;15.90;96.60
36450;DHT22;22475;51.390;7.180;2022-09-12T02:54:13;15.90;96.80
36450;DHT22;22475;51.390;7.180;2022-09-12T02:56:41;15.90;96.70
36450;DHT22;22475;51.390;7.180;2022-09-12T02:59:11;15.80;96.60
36450;DHT22;22475;51.390;7.180;2022-09-12T03:07:40;15.70;96.50
36450;DHT22;22475;51.390;7.180;2022-09-12T03:10:15;15.80;96.80
36450;DHT22;22475;51.390;7.180;2022-09-12T03:12:54;15.80;96.90
36450;DHT22;22475;51.390;7.180;2022-09-12T03:15:31;15.80;97.00
36450;DHT22;22475;51.390;7.180;2022-09-12T03:18:06;15.80;97.00
36450;DHT22;22475;51.390;7.180;2022-09-12T03:20:45;15.80;96.90
36450;DHT22;22475;51.390;7.180;2022-09-12T03:23:23;15.80;96.70
36450;DHT22;22475;51.390;7.180;2022-09-12T03:25:54;15.80;96.50
36450;DHT22;22475;51.390;7.180;2022-09-12T03:28:22;15.80;96.50
36450;DHT22;22475;51.390;7.180;2022-09-12T03:30:49;15.70;96.40
36450;DHT22;22475;51.390;7.180;2022-09-12T03:33:20;15.70;96.30
36450;DHT22;22475;51.390;7.180;2022-09-12T03:35:48;15.60;96.30
36450;DHT22;22475;51.390;7.180;2022-09-12T03:38:16;15.50;96.20
36450;DHT22;22475;51.390;7.180;2022-09-12T03:40:43;15.50;96.20
36450;DHT22;22475;51.390;7.180;2022-09-12T03:43:11;15.40;96.20
36450;DHT22;22475;51.390;7.180;2022-09-12T03:45:38;15.40;96.30
36450;DHT22;22475;51.390;7.180;2022-09-12T03:48:05;15.40;96.20
36450;DHT22;22475;51.390;7.180;2022-09-12T03:50:32;15.40;96.30
36450;DHT22;22475;51.390;7.180;2022-09-12T03:53:00;15.30;96.30
36450;DHT22;22475;51.390;7.180;2022-09-12T03:55:27;15.40;96.40
36450;DHT22;22475;51.390;7.180;2022-09-12T03:57:55;15.40;96.40
36450;DHT22;22475;51.390;7.180;2022-09-12T04:00:22;15.30;96.50
36450;DHT22;22475;51.390;7.180;2022-09-12T04:02:53;15.30;96.50
36450;DHT22;22475;51.390;7.180;2022-09-12T04:05:20;15.30;96.50
36450;DHT22;22475;51.390;7.180;2022-09-12T04:07:47;15.40;96.60
36450;DHT22;22475;51.390;7.180;2022-09-12T04:10:16;15.40;96.60
36450;DHT22;22475;51.390;7.180;2022-09-12T04:12:43;15.40;96.70
36450;DHT22;22475;51.390;7.180;2022-09-12T04:15:10;15.40;96.60
36450;DHT22;22475;51.390;7.180;2022-09-12T04:17:37;15.50;96.60
36450;DHT22;22475;51.390;7.180;2022-09-12T04:20:04;15.40;96.70
36450;DHT22;22475;51.390;7.180;2022-09-12T04:22:31;15.40;96.60
36450;DHT22;22475;51.390;7.180;2022-09-12T04:24:58;15.40;96.50
36450;DHT22;22475;51.390;7.180;2022-09-12T04:27:27;15.40;96.50
36450;DHT22;22475;51.390;7.180;2022-09-12T04:29:54;15.40;96.50
36450;DHT22;22475;51.390;7.180;2022-09-12T04:32:21;15.40;96.40
36450;DHT22;22475;51.390;7.180;2022-09-12T04:34:48;15.40;96.30
36450;DHT22;22475;51.390;7.180;2022-09-12T04:37:17;15.40;96.30
36450;DHT22;22475;51.390;7.180;2022-09-12T04:39:44;15.40;96.40
36450;DHT22;22475;51.390;7.180;2022-09-12T04:42:13;15.40;96.40
36450;DHT22;22475;51.390;7.180;2022-09-12T04:44:41;15.40;96.30
36450;DHT22;22475;51.390;7.180;2022-09-12T04:47:08;15.30;96.30
36450;DHT22;22475;51.390;7.180;2022-09-12T04:49:35;15.30;96.30
36450;DHT22;22475;51.390;7.180;2022-09-12T04:52:02;15.30;96.30
36450;DHT22;22475;51.390;7.180;2022-09-12T04:54:29;15.40;96.40
36450;DHT22;22475;51.390;7.180;2022-09-12T04:56:55;15.40;96.40
36450;DHT22;22475;51.390;7.180;2022-09-12T04:59:22;15.40;96.30
36450;DHT22;22475;51.390;7.180;2022-09-12T05:01:51;15.40;96.20
36450;DHT22;22475;51.390;7.180;2022-09-12T05:04:18;15.40;96.10
36450;DHT22;22475;51.390;7.180;2022-09-12T05:06:46;15.40;96.10
36450;DHT22;22475;51.390;7.180;2022-09-12T05:09:13;15.40;96.10
36450;DHT22;22475;51.390;7.180;2022-09-12T05:11:42;15.40;96.20
36450;DHT22;22475;51.390;7.180;2022-09-12T05:14:10;15.40;96.20
36450;DHT22;22475;51.390;7.180;2022-09-12T05:16:37;15.40;96.10
36450;DHT22;22475;51.390;7.180;2022-09-12T05:19:06;15.40;96.20
36450;DHT22;22475;51.390;7.180;2022-09-12T05:21:35;15.30;96.30
36450;DHT22;22475;51.390;7.180;2022-09-12T05:24:02;15.30;96.20
36450;DHT22;22475;51.390;7.180;2022-09-12T05:26:31;15.30;96.30
36450;DHT22;22475;51.390;7.180;2022-09-12T05:28:57;15.30;96.30
36450;DHT22;22475;51.390;7.180;2022-09-12T05:31:25;15.40;96.30
36450;DHT22;22475;51.390;7.180;2022-09-12T05:33:54;15.40;96.40
36450;DHT22;22475;51.390;7.180;2022-09-12T05:36:24;15.40;96.50
36450;DHT22;22475;51.390;7.180;2022-09-12T05:38:51;15.40;96.50
36450;DHT22;22475;51.390;7.180;2022-09-12T05:41:18;15.40;96.40
36450;DHT22;22475;51.390;7.180;2022-09-12T05:43:46;15.40;96.30
36450;DHT22;22475;51.390;7.180;2022-09-12T05:46:17;15.40;96.70
36450;DHT22;22475;51.390;7.180;2022-09-12T05:48:46;15.40;96.40
36450;DHT22;22475;51.390;7.180;2022-09-12T05:51:15;15.50;96.40
36450;DHT22;22475;51.390;7.180;2022-09-12T05:53:46;15.50;96.60
36450;DHT22;22475;51.390;7.180;2022-09-12T05:56:16;15.50;96.70
36450;DHT22;22475;51.390;7.180;2022-09-12T05:58:44;15.50;96.80
36450;DHT22;22475;51.390;7.180;2022-09-12T06:01:13;15.60;96.80
36450;DHT22;22475;51.390;7.180;2022-09-12T06:03:41;15.70;96.90
36450;DHT22;22475;51.390;7.180;2022-09-12T06:06:09;15.70;96.90
36450;DHT22;22475;51.390;7.180;2022-09-12T06:08:39;15.70;96.90
36450;DHT22;22475;51.390;7.180;2022-09-12T06:11:09;15.80;96.80
36450;DHT22;22475;51.390;7.180;2022-09-12T06:13:38;15.80;96.90
36450;DHT22;22475;51.390;7.180;2022-09-12T06:16:07;15.90;97.20
36450;DHT22;22475;51.390;7.180;2022-09-12T06:18:35;16.00;97.30
36450;DHT22;22475;51.390;7.180;2022-09-12T06:21:03;16.10;97.30
36450;DHT22;22475;51.390;7.180;2022-09-12T06:23:30;16.10;97.20
36450;DHT22;22475;51.390;7.180;2022-09-12T06:25:58;16.10;97.10
36450;DHT22;22475;51.390;7.180;2022-09-12T06:28:26;16.20;97.60
36450;DHT22;22475;51.390;7.180;2022-09-12T06:30:59;16.20;97.30
36450;DHT22;22475;51.390;7.180;2022-09-12T06:33:26;16.30;97.40
36450;DHT22;22475;51.390;7.180;2022-09-12T06:35:53;16.40;97.40
36450;DHT22;22475;51.390;7.180;2022-09-12T06:38:20;16.40;97.40
36450;DHT22;22475;51.390;7.180;2022-09-12T06:40:47;16.50;97.40
36450;DHT22;22475;51.390;7.180;2022-09-12T06:43:14;16.50;97.30
36450;DHT22;22475;51.390;7.180;2022-09-12T06:45:48;16.50;97.30
36450;DHT22;22475;51.390;7.180;2022-09-12T06:48:15;16.50;97.40
36450;DHT22;22475;51.390;7.180;2022-09-12T06:50:43;16.50;97.40
36450;DHT22;22475;51.390;7.180;2022-09-12T06:53:09;16.50;97.70
36450;DHT22;22475;51.390;7.180;2022-09-12T06:55:36;16.70;98.00
36450;DHT22;22475;51.390;7.180;2022-09-12T06:58:03;16.70;98.10
36450;DHT22;22475;51.390;7.180;2022-09-12T07:00:31;16.80;98.00
36450;DHT22;22475;51.390;7.180;2022-09-12T07:02:59;16.90;98.00
36450;DHT22;22475;51.390;7.180;2022-09-12T07:05:26;16.90;97.90
36450;DHT22;22475;51.390;7.180;2022-09-12T07:07:53;16.90;97.90
36450;DHT22;22475;51.390;7.180;2022-09-12T07:10:20;16.90;97.90
36450;DHT22;22475;51.390;7.180;2022-09-12T07:12:47;16.90;97.90
36450;DHT22;22475;51.390;7.180;2022-09-12T07:15:14;17.00;98.00
36450;DHT22;22475;51.390;7.180;2022-09-12T07:17:42;17.00;98.10
36450;DHT22;22475;51.390;7.180;2022-09-12T07:20:10;17.10;98.10
36450;DHT22;22475;51.390;7.180;2022-09-12T07:22:41;17.10;98.20
36450;DHT22;22475;51.390;7.180;2022-09-12T07:25:08;17.20;98.20
36450;DHT22;22475;51.390;7.180;2022-09-12T07:27:35;17.20;98.30
36450;DHT22;22475;51.390;7.180;2022-09-12T07:30:03;17.30;98.40
36450;DHT22;22475;51.390;7.180;2022-09-12T07:32:32;17.30;98.30
36450;DHT22;22475;51.390;7.180;2022-09-12T07:34:59;17.40;98.40
36450;DHT22;22475;51.390;7.180;2022-09-12T07:37:29;17.40;98.30
36450;DHT22;22475;51.390;7.180;2022-09-12T07:39:56;17.50;98.40
36450;DHT22;22475;51.390;7.180;2022-09-12T07:42:24;17.60;98.30
36450;DHT22;22475;51.390;7.180;2022-09-12T07:44:51;17.60;98.30
36450;DHT22;22475;51.390;7.180;2022-09-12T07:47:18;17.70;98.30
36450;DHT22;22475;51.390;7.180;2022-09-12T07:49:45;17.70;98.30
36450;DHT22;22475;51.390;7.180;2022-09-12T07:52:12;17.80;98.30
36450;DHT22;22475;51.390;7.180;2022-09-12T07:54:40;17.80;98.20
36450;DHT22;22475;51.390;7.180;2022-09-12T07:57:07;17.90;98.20
36450;DHT22;22475;51.390;7.180;2022-09-12T07:59:34;17.90;98.20
36450;DHT22;22475;51.390;7.180;2022-09-12T08:02:10;18.00;98.10
36450;DHT22;22475;51.390;7.180;2022-09-12T08:04:38;18.00;98.50
36450;DHT22;22475;51.390;7.180;2022-09-12T08:07:06;18.10;98.10
36450;DHT22;22475;51.390;7.180;2022-09-12T08:09:33;18.20;98.20
36450;DHT22;22475;51.390;7.180;2022-09-12T08:12:02;18.20;98.10
36450;DHT22;22475;51.390;7.180;2022-09-12T08:14:29;18.20;98.10
36450;DHT22;22475;51.390;7.180;2022-09-12T08:16:59;18.30;98.10
36450;DHT22;22475;51.390;7.180;2022-09-12T08:19:25;18.30;98.10
36450;DHT22;22475;51.390;7.180;2022-09-12T08:21:52;18.30;98.00
36450;DHT22;22475;51.390;7.180;2022-09-12T08:24:19;18.30;97.90
36450;DHT22;22475;51.390;7.180;2022-09-12T08:26:46;18.40;97.80
36450;DHT22;22475;51.390;7.180;2022-09-12T08:29:14;18.40;97.70
36450;DHT22;22475;51.390;7.180;2022-09-12T08:31:41;18.40;97.70
36450;DHT22;22475;51.390;7.180;2022-09-12T08:34:09;18.50;97.60
36450;DHT22;22475;51.390;7.180;2022-09-12T08:36:35;18.50;97.60
36450;DHT22;22475;51.390;7.180;2022-09-12T08:39:04;18.50;97.60
36450;DHT22;22475;51.390;7.180;2022-09-12T08:41:34;18.60;97.50
36450;DHT22;22475;51.390;7.180;2022-09-12T08:47:25;18.60;97.40
36450;DHT22;22475;51.390;7.180;2022-09-12T08:50:07;18.70;97.30
36450;DHT22;22475;51.390;7.180;2022-09-12T08:52:42;18.70;97.30
36450;DHT22;22475;51.390;7.180;2022-09-12T08:57:58;18.70;97.20
36450;DHT22;22475;51.390;7.180;2022-09-12T09:00:34;18.80;97.20
36450;DHT22;22475;51.390;7.180;2022-09-12T09:03:33;18.70;97.20
36450;DHT22;22475;51.390;7.180;2022-09-12T09:06:10;18.80;97.10
36450;DHT22;22475;51.390;7.180;2022-09-12T09:08:52;18.80;97.10
36450;DHT22;22475;51.390;7.180;2022-09-12T09:11:44;18.80;97.00
36450;DHT22;22475;51.390;7.180;2022-09-12T09:14:32;18.80;96.90
36450;DHT22;22475;51.390;7.180;2022-09-12T09:17:20;18.80;96.80
36450;DHT22;22475;51.390;7.180;2022-09-12T09:19:56;18.90;96.80
36450;DHT22;22475;51.390;7.180;2022-09-12T09:22:34;18.90;96.80
36450;DHT22;22475;51.390;7.180;2022-09-12T09:25:06;18.90;96.70
36450;DHT22;22475;51.390;7.180;2022-09-12T09:27:38;18.90;96.60
36450;DHT22;22475;51.390;7.180;2022-09-12T09:30:12;19.00;96.60
36450;DHT22;22475;51.390;7.180;2022-09-12T09:32:40;19.00;96.50
36450;DHT22;22475;51.390;7.180;2022-09-12T09:35:15;19.00;96.50
36450;DHT22;22475;51.390;7.180;2022-09-12T09:37:51;19.00;96.40
36450;DHT22;22475;51.390;7.180;2022-09-12T09:40:24;19.00;96.30
36450;DHT22;22475;51.390;7.180;2022-09-12T09:42:57;19.00;96.30
36450;DHT22;22475;51.390;7.180;2022-09-12T09:45:26;19.00;96.20
36450;DHT22;22475;51.390;7.180;2022-09-12T09:47:57;19.00;96.20
36450;DHT22;22475;51.390;7.180;2022-09-12T09:50:28;19.10;96.20
36450;DHT22;22475;51.390;7.180;2022-09-12T09:52:56;19.10;96.10
36450;DHT22;22475;51.390;7.180;2022-09-12T09:55:29;19.10;96.10
36450;DHT22;22475;51.390;7.180;2022-09-12T09:57:59;19.10;96.00
36450;DHT22;22475;51.390;7.180;2022-09-12T10:00:29;19.10;95.90
36450;DHT22;22475;51.390;7.180;2022-09-12T10:03:23;19.10;95.80
36450;DHT22;22475;51.390;7.180;2022-09-12T10:05:55;19.20;95.60
36450;DHT22;22475;51.390;7.180;2022-09-12T10:08:24;19.20;95.50
36450;DHT22;22475;51.390;7.180;2022-09-12T10:10:53;19.20;95.40
36450;DHT22;22475;51.390;7.180;2022-09-12T10:13:27;19.20;95.30
36450;DHT22;22475;51.390;7.180;2022-09-12T10:15:58;19.20;95.20
36450;DHT22;22475;51.390;7.180;2022-09-12T10:18:47;19.30;95.20
36450;DHT22;22475;51.390;7.180;2022-09-12T10:21:27;19.30;95.10
36450;DHT22;22475;51.390;7.180;2022-09-12T10:24:15;19.30;95.10
36450;DHT22;22475;51.390;7.180;2022-09-12T10:26:48;19.30;95.00
36450;DHT22;22475;51.390;7.180;2022-09-12T10:29:20;19.30;95.00
36450;DHT22;22475;51.390;7.180;2022-09-12T10:31:51;19.30;94.90
36450;DHT22;22475;51.390;7.180;2022-09-12T10:34:22;19.30;94.80
36450;DHT22;22475;51.390;7.180;2022-09-12T10:36:56;19.30;94.80
36450;DHT22;22475;51.390;7.180;2022-09-12T10:39:24;19.40;94.70
36450;DHT22;22475;51.390;7.180;2022-09-12T10:41:51;19.30;94.70
36450;DHT22;22475;51.390;7.180;2022-09-12T10:44:25;19.40;94.80
36450;DHT22;22475;51.390;7.180;2022-09-12T10:46:52;19.40;94.60
36450;DHT22;22475;51.390;7.180;2022-09-12T10:49:22;19.40;94.60
36450;DHT22;22475;51.390;7.180;2022-09-12T10:51:52;19.40;94.50
36450;DHT22;22475;51.390;7.180;2022-09-12T10:54:21;19.40;94.50
36450;DHT22;22475;51.390;7.180;2022-09-12T10:57:05;19.40;94.40
36450;DHT22;22475;51.390;7.180;2022-09-12T10:59:55;19.40;94.30
36450;DHT22;22475;51.390;7.180;2022-09-12T11:02:27;19.40;94.60
36450;DHT22;22475;51.390;7.180;2022-09-12T11:05:01;19.40;94.20
36450;DHT22;22475;51.390;7.180;2022-09-12T11:07:37;19.50;94.10
36450;DHT22;22475;51.390;7.180;2022-09-12T11:10:27;19.50;94.00
36450;DHT22;22475;51.390;7.180;2022-09-12T11:12:58;19.50;93.90
36450;DHT22;22475;51.390;7.180;2022-09-12T11:15:44;19.50;94.00
36450;DHT22;22475;51.390;7.180;2022-09-12T11:18:31;19.50;93.90
36450;DHT22;22475;51.390;7.180;2022-09-12T11:21:11;19.60;93.80
36450;DHT22;22475;51.390;7.180;2022-09-12T11:24:14;19.50;93.80
36450;DHT22;22475;51.390;7.180;2022-09-12T11:26:56;19.60;93.80
36450;DHT22;22475;51.390;7.180;2022-09-12T11:29:39;19.50;93.70
36450;DHT22;22475;51.390;7.180;2022-09-12T11:32:22;19.50;93.70
36450;DHT22;22475;51.390;7.180;2022-09-12T11:34:58;19.50;93.70
36450;DHT22;22475;51.390;7.180;2022-09-12T11:37:44;19.60;93.70
36450;DHT22;22475;51.390;7.180;2022-09-12T11:40:26;19.60;93.40
36450;DHT22;22475;51.390;7.180;2022-09-12T11:42:58;19.60;93.40
36450;DHT22;22475;51.390;7.180;2022-09-12T11:45:30;19.60;93.40
36450;DHT22;22475;51.390;7.180;2022-09-12T11:48:03;19.60;93.40
36450;DHT22;22475;51.390;7.180;2022-09-12T11:50:32;19.60;93.30
36450;DHT22;22475;51.390;7.180;2022-09-12T11:53:04;19.60;93.30
36450;DHT22;22475;51.390;7.180;2022-09-12T11:55:45;19.60;93.10
36450;DHT22;22475;51.390;7.180;2022-09-12T11:58:13;19.60;93.10
36450;DHT22;22475;51.390;7.180;2022-09-12T12:00:44;19.60;93.10
36450;DHT22;22475;51.390;7.180;2022-09-12T12:03:16;19.70;93.10
36450;DHT22;22475;51.390;7.180;2022-09-12T12:05:50;19.70;93.00
36450;DHT22;22475;51.390;7.180;2022-09-12T12:08:20;19.70;93.00
36450;DHT22;22475;51.390;7.180;2022-09-12T12:10:51;19.70;93.10
36450;DHT22;22475;51.390;7.180;2022-09-12T12:13:22;19.60;93.10
36450;DHT22;22475;51.390;7.180;2022-09-12T12:15:55;19.60;93.10
36450;DHT22;22475;51.390;7.180;2022-09-12T12:18:24;19.60;93.10
36450;DHT22;22475;51.390;7.180;2022-09-12T12:20:52;19.70;93.10
36450;DHT22;22475;51.390;7.180;2022-09-12T12:23:25;19.70;93.10
36450;DHT22;22475;51.390;7.180;2022-09-12T12:25:55;19.70;93.00
36450;DHT22;22475;51.390;7.180;2022-09-12T12:31:22;19.70;92.60
36450;DHT22;22475;51.390;7.180;2022-09-12T12:34:26;19.70;92.70
36450;DHT22;22475;51.390;7.180;2022-09-12T12:36:53;19.70;92.50
36450;DHT22;22475;51.390;7.180;2022-09-12T12:54:29;19.80;92.40
36450;DHT22;22475;51.390;7.180;2022-09-12T12:57:02;19.80;92.30
36450;DHT22;22475;51.390;7.180;2022-09-12T12:59:30;19.80;92.30
36450;DHT22;22475;51.390;7.180;2022-09-12T13:01:58;19.80;92.30
36450;DHT22;22475;51.390;7.180;2022-09-12T13:04:29;19.80;92.20
36450;DHT22;22475;51.390;7.180;2022-09-12T13:07:00;19.80;92.10
36450;DHT22;22475;51.390;7.180;2022-09-12T13:09:31;19.80;92.00
36450;DHT22;22475;51.390;7.180;2022-09-12T13:12:01;19.80;91.90
36450;DHT22;22475;51.390;7.180;2022-09-12T13:14:35;19.80;91.80
36450;DHT22;22475;51.390;7.180;2022-09-12T13:17:04;19.80;91.70
36450;DHT22;22475;51.390;7.180;2022-09-12T13:19:36;19.80;91.80
36450;DHT22;22475;51.390;7.180;2022-09-12T13:22:05;19.80;91.80
36450;DHT22;22475;51.390;7.180;2022-09-12T13:24:33;19.80;91.80
36450;DHT22;22475;51.390;7.180;2022-09-12T13:27:00;19.80;91.80
36450;DHT22;22475;51.390;7.180;2022-09-12T13:29:27;19.80;91.80
36450;DHT22;22475;51.390;7.180;2022-09-12T13:31:56;19.80;91.70
36450;DHT22;22475;51.390;7.180;2022-09-12T13:34:25;19.90;91.70
36450;DHT22;22475;51.390;7.180;2022-09-12T13:40:16;19.90;91.60
36450;DHT22;22475;51.390;7.180;2022-09-12T13:42:49;19.80;91.50
36450;DHT22;22475;51.390;7.180;2022-09-12T13:45:19;19.80;91.50
36450;DHT22;22475;51.390;7.180;2022-09-12T13:47:49;19.80;91.50
36450;DHT22;22475;51.390;7.180;2022-09-12T13:50:19;19.80;91.50
36450;DHT22;22475;51.390;7.180;2022-09-12T13:52:50;19.80;91.50
36450;DHT22;22475;51.390;7.180;2022-09-12T13:55:29;19.80;91.60
36450;DHT22;22475;51.390;7.180;2022-09-12T13:57:58;19.80;91.50
36450;DHT22;22475;51.390;7.180;2022-09-12T14:00:26;19.80;91.60
36450;DHT22;22475;51.390;7.180;2022-09-12T14:02:56;19.80;91.60
36450;DHT22;22475;51.390;7.180;2022-09-12T14:05:38;19.80;91.60
36450;DHT22;22475;51.390;7.180;2022-09-12T14:08:11;19.80;91.50
36450;DHT22;22475;51.390;7.180;2022-09-12T14:10:41;19.80;91.50
36450;DHT22;22475;51.390;7.180;2022-09-12T14:13:11;19.90;91.50
36450;DHT22;22475;51.390;7.180;2022-09-12T14:15:43;19.80;91.40
36450;DHT22;22475;51.390;7.180;2022-09-12T14:18:21;19.90;91.40
36450;DHT22;22475;51.390;7.180;2022-09-12T14:20:50;19.90;91.40
36450;DHT22;22475;51.390;7.180;2022-09-12T14:23:26;19.90;91.50
36450;DHT22;22475;51.390;7.180;2022-09-12T14:25:55;19.90;91.40
36450;DHT22;22475;51.390;7.180;2022-09-12T14:28:24;19.90;91.40
36450;DHT22;22475;51.390;7.180;2022-09-12T14:31:00;19.90;91.40
36450;DHT22;22475;51.390;7.180;2022-09-12T14:33:28;19.90;91.30
36450;DHT22;22475;51.390;7.180;2022-09-12T14:36:08;19.90;91.50
36450;DHT22;22475;51.390;7.180;2022-09-12T14:38:40;19.90;91.30
36450;DHT22;22475;51.390;7.180;2022-09-12T14:41:09;19.90;91.30
36450;DHT22;22475;51.390;7.180;2022-09-12T14:43:38;19.90;91.30
36450;DHT22;22475;51.390;7.180;2022-09-12T14:46:13;19.90;91.40
36450;DHT22;22475;51.390;7.180;2022-09-12T14:48:45;19.90;91.80
36450;DHT22;22475;51.390;7.180;2022-09-12T14:51:19;19.90;91.40
36450;DHT22;22475;51.390;7.180;2022-09-12T14:53:48;19.90;91.30
36450;DHT22;22475;51.390;7.180;2022-09-12T14:56:16;19.90;91.30
36450;DHT22;22475;51.390;7.180;2022-09-12T14:58:46;19.90;91.30
36450;DHT22;22475;51.390;7.180;2022-09-12T15:01:23;19.90;91.30
36450;DHT22;22475;51.390;7.180;2022-09-12T15:03:53;19.90;91.20
36450;DHT22;22475;51.390;7.180;2022-09-12T15:06:23;19.90;91.30
36450;DHT22;22475;51.390;7.180;2022-09-12T15:08:55;19.90;91.30
36450;DHT22;22475;51.390;7.180;2022-09-12T15:11:22;19.90;91.20
36450;DHT22;22475;51.390;7.180;2022-09-12T15:13:49;19.90;91.20
36450;DHT22;22475;51.390;7.180;2022-09-12T15:16:16;19.90;91.20
36450;DHT22;22475;51.390;7.180;2022-09-12T15:18:43;19.90;91.20
36450;DHT22;22475;51.390;7.180;2022-09-12T15:21:17;19.90;91.10
36450;DHT22;22475;51.390;7.180;2022-09-12T15:23:46;19.90;91.10
36450;DHT22;22475;51.390;7.180;2022-09-12T15:26:15;20.00;91.10
36450;DHT22;22475;51.390;7.180;2022-09-12T15:28:43;19.90;91.00
36450;DHT22;22475;51.390;7.180;2022-09-12T15:31:14;19.90;91.10
36450;DHT22;22475;51.390;7.180;2022-09-12T15:33:44;20.00;91.10
36450;DHT22;22475;51.390;7.180;2022-09-12T15:36:16;19.90;91.10
36450;DHT22;22475;51.390;7.180;2022-09-12T15:38:43;19.90;91.00
36450;DHT22;22475;51.390;7.180;2022-09-12T15:41:14;20.00;91.10
36450;DHT22;22475;51.390;7.180;2022-09-12T15:43:42;19.90;91.10
36450;DHT22;22475;51.390;7.180;2022-09-12T15:46:10;20.00;91.10
36450;DHT22;22475;51.390;7.180;2022-09-12T15:48:36;20.00;91.10
36450;DHT22;22475;51.390;7.180;2022-09-12T15:51:04;19.90;91.10
36450;DHT22;22475;51.390;7.180;2022-09-12T15:53:31;19.90;91.10
36450;DHT22;22475;51.390;7.180;2022-09-12T15:55:58;19.90;91.10
36450;DHT22;22475;51.390;7.180;2022-09-12T15:58:26;20.00;91.10
36450;DHT22;22475;51.390;7.180;2022-09-12T16:00:53;20.00;91.10
36450;DHT22;22475;51.390;7.180;2022-09-12T16:03:22;19.90;91.00
36450;DHT22;22475;51.390;7.180;2022-09-12T16:05:51;19.90;91.00
36450;DHT22;22475;51.390;7.180;2022-09-12T16:08:20;20.00;91.00
36450;DHT22;22475;51.390;7.180;2022-09-12T16:10:51;20.00;91.00
36450;DHT22;22475;51.390;7.180;2022-09-12T16:13:18;20.00;91.00
36450;DHT22;22475;51.390;7.180;2022-09-12T16:15:47;20.00;91.10
36450;DHT22;22475;51.390;7.180;2022-09-12T16:18:14;19.90;91.10
36450;DHT22;22475;51.390;7.180;2022-09-12T16:20:41;20.00;91.20
36450;DHT22;22475;51.390;7.180;2022-09-12T16:23:10;19.90;91.20
36450;DHT22;22475;51.390;7.180;2022-09-12T16:25:37;19.90;91.20
36450;DHT22;22475;51.390;7.180;2022-09-12T16:28:04;19.90;91.30
36450;DHT22;22475;51.390;7.180;2022-09-12T16:30:31;19.90;91.40
36450;DHT22;22475;51.390;7.180;2022-09-12T16:33:00;19.90;91.50
36450;DHT22;22475;51.390;7.180;2022-09-12T16:35:27;19.90;91.50
36450;DHT22;22475;51.390;7.180;2022-09-12T16:37:56;20.00;91.60